»·PEaware :: AAL2222 KDFW-KAUS

AAL2222 :: KDFW-KAUS

FLIGHT INFORMATION

Flight Status: Arrived
Operator:
American Airlines
More flights by this operator :: More flights under this callsign
Pilot: Anonymous 13363 (13363)
Aircraft: MCDONNELL-DOUGLAS MD-88
(MD88)
More flights by this aircraft type
Origin: KDFW Dallas-Ft Worth Intl
United States
Destination: KAUS Austin Bergstrom Intl
United States
More flights between these airports :: More routes between these airports
Route: JASPA5 WINDU SEWZY3
File this flight plan on PilotEdge
Remarks:
Altitude:
(Current/Filed)
23,000ft
Speed:
(Current/Filed)
450kts
Departed: 29-Apr-17 12:48 PM
Arrived: 29-Apr-17 01:24 PM
Distance/Time
Traveled:
165nm/0:36
Distance/Time
To Go:
Arrived

Flight Plot

Page will automatically refresh every two minutes.

Flight plan parsing failed; only flown route is shown


Map Options




Map Legend


Flown Route
Filed Route
Departure Airport
Arrival Airport
Navaid (VOR, NDB)
Fix

Horizontal Profiles

Position Reports

Time Latitude Longitude Heading Altitude Ground
Speed
29-Apr-17 12:22 32.897105 -97.034721 277 612ft 0kts
29-Apr-17 12:23 32.897105 -97.034721 277 612ft 0kts
29-Apr-17 12:24 32.897105 -97.034721 277 612ft 0kts
29-Apr-17 12:25 32.897105 -97.034721 277 612ft 0kts
29-Apr-17 12:26 32.897105 -97.034721 277 612ft 0kts
29-Apr-17 12:27 32.897105 -97.034721 277 612ft 0kts
29-Apr-17 12:28 32.897105 -97.034721 277 612ft 0kts
29-Apr-17 12:29 32.897105 -97.034721 277 612ft 0kts
29-Apr-17 12:30 32.897105 -97.034721 277 612ft 0kts
29-Apr-17 12:31 32.897105 -97.034721 277 612ft 0kts
29-Apr-17 12:32 32.897105 -97.034721 277 612ft 0kts
29-Apr-17 12:33 32.897105 -97.034721 277 612ft 0kts
29-Apr-17 12:34 32.897105 -97.034721 277 612ft 0kts
29-Apr-17 12:35 32.897105 -97.034721 277 612ft 0kts
29-Apr-17 12:36 32.897105 -97.034721 277 612ft 0kts
29-Apr-17 12:37 32.897105 -97.034721 277 612ft 0kts
29-Apr-17 12:38 32.896988 -97.034105 311 612ft 3kts
29-Apr-17 12:39 32.896666 -97.033984 7 612ft 0kts
29-Apr-17 12:40 32.896666 -97.033984 7 612ft 0kts
29-Apr-17 12:41 32.896666 -97.033984 7 612ft 0kts
29-Apr-17 12:42 32.896786 -97.033961 10 612ft 2kts
29-Apr-17 12:43 32.897971 -97.033141 1 612ft 8kts
29-Apr-17 12:44 32.901445 -97.033132 1 612ft 16kts
29-Apr-17 12:45 32.906916 -97.033092 0 612ft 21kts
29-Apr-17 12:46 32.912480 -97.032744 1 612ft 15kts
29-Apr-17 12:47 32.914805 -97.031809 95 612ft 5kts
29-Apr-17 12:48 32.914787 -97.030797 88 612ft 8kts
29-Apr-17 12:49 32.914318 -97.029893 181 612ft 0kts
29-Apr-17 12:50 32.893497 -97.029951 188 620ft 185kts
29-Apr-17 12:51 32.843673 -97.036299 189 3068ft 192kts
29-Apr-17 12:52 32.786540 -97.030107 191 5646ft 223kts
29-Apr-17 12:53 32.722243 -97.031171 180 9347ft 240kts
29-Apr-17 12:54 32.655300 -97.005061 157 10847ft 316kts
29-Apr-17 12:55 32.570749 -96.986539 196 13886ft 327kts
29-Apr-17 12:56 32.480366 -97.010411 194 16646ft 344kts
29-Apr-17 12:57 32.385656 -97.034082 194 19162ft 359kts
29-Apr-17 12:58 32.286854 -97.058323 191 21498ft 370kts
29-Apr-17 12:59 32.183330 -97.062497 185 21638ft 376kts
29-Apr-17 13:00 32.079366 -97.065617 185 21637ft 375kts
29-Apr-17 13:01 31.975204 -97.068845 185 21637ft 375kts
29-Apr-17 13:02 31.873191 -97.072009 185 21643ft 376kts
29-Apr-17 13:03 31.783179 -97.074791 185 21642ft 376kts
29-Apr-17 13:04 31.679856 -97.077999 185 21642ft 376kts
29-Apr-17 13:05 31.575315 -97.081243 185 21641ft 378kts
29-Apr-17 13:06 31.475145 -97.103990 202 21637ft 359kts
29-Apr-17 13:07 31.380700 -97.141454 201 21290ft 362kts
29-Apr-17 13:08 31.286990 -97.178095 201 20086ft 351kts
29-Apr-17 13:09 31.196825 -97.213578 201 18821ft 341kts
29-Apr-17 13:10 31.108641 -97.247845 201 17318ft 329kts
29-Apr-17 13:11 31.024206 -97.280608 201 15970ft 314kts
29-Apr-17 13:12 30.943984 -97.311759 201 14858ft 294kts
29-Apr-17 13:13 30.886690 -97.334384 201 14050ft 282kts
29-Apr-17 13:14 30.831517 -97.355833 201 13231ft 279kts
29-Apr-17 13:15 30.762186 -97.393732 209 11838ft 280kts
29-Apr-17 13:16 30.693871 -97.435214 209 10557ft 271kts
29-Apr-17 13:17 30.629153 -97.474752 209 9323ft 262kts
29-Apr-17 13:18 30.566771 -97.512323 209 7904ft 247kts
29-Apr-17 13:19 30.507679 -97.547814 210 6565ft 231kts
29-Apr-17 13:20 30.474903 -97.567191 209 5833ft 216kts
29-Apr-17 13:21 30.423786 -97.597450 209 4791ft 200kts
29-Apr-17 13:22 30.375309 -97.625927 205 3999ft 196kts
29-Apr-17 13:23 30.327575 -97.653014 210 3988ft 197kts
29-Apr-17 13:24 30.271546 -97.659026 181 2480ft 209kts
29-Apr-17 13:25 30.218044 -97.658192 178 849ft 163kts
29-Apr-17 13:26 30.187431 -97.657515 182 547ft 25kts
29-Apr-17 13:27 30.186030 -97.659481 358 547ft 8kts
29-Apr-17 13:28 30.190983 -97.659619 358 547ft 22kts
29-Apr-17 13:29 30.195858 -97.659769 359 547ft 15kts
29-Apr-17 13:30 30.199206 -97.660711 270 547ft 13kts
29-Apr-17 13:31 30.199101 -97.665270 271 547ft 15kts
29-Apr-17 13:32 30.199405 -97.669770 345 547ft 7kts
29-Apr-17 13:33 30.201466 -97.669559 22 547ft 3kts
29-Apr-17 13:34 30.209928 -97.657970 178 658ft 148kts
29-Apr-17 13:35 30.203172 -97.657791 178 548ft 142kts
29-Apr-17 13:36 30.200183 -97.657709 178 548ft 137kts
29-Apr-17 13:37 30.201561 -97.669512 22 547ft 0kts

Navigation Log

Ident Type
Flight plan parsing failed, navigation log unavailable